createdAt,value
2019-04-21T00:01:18.274Z,17.31
2019-04-21T00:03:54.897Z,17.36
2019-04-21T00:06:43.454Z,17.27
2019-04-21T00:11:42.562Z,17.16
2019-04-21T00:14:05.993Z,17.05
2019-04-21T00:16:36.913Z,16.93
2019-04-21T00:19:20.819Z,16.88
2019-04-21T00:21:55.425Z,16.81
2019-04-21T00:24:37.476Z,16.83
2019-04-21T00:27:11.161Z,16.82
2019-04-21T00:29:45.664Z,16.55
2019-04-21T00:32:10.221Z,16.45
2019-04-21T00:34:28.196Z,16.49
2019-04-21T00:37:09.429Z,16.33
2019-04-21T00:40:01.896Z,16.42
2019-04-21T00:42:21.561Z,16.33
2019-04-21T00:44:52.009Z,16.38
2019-04-21T00:47:27.931Z,16.44
2019-04-21T00:50:00.824Z,16.39
2019-04-21T00:52:46.136Z,16.28
2019-04-21T00:55:34.137Z,16.37
2019-04-21T00:57:51.880Z,16.36
2019-04-21T01:00:18.704Z,16.45
2019-04-21T01:02:59.411Z,16.33
2019-04-21T01:05:21.245Z,16.21
2019-04-21T01:07:50.705Z,16.24
2019-04-21T01:10:20.789Z,16.13
2019-04-21T01:13:04.026Z,16.18
2019-04-21T01:15:37.392Z,16.15
2019-04-21T01:18:04.801Z,16.13
2019-04-21T01:20:18.079Z,16.11
2019-04-21T01:22:47.720Z,16.06
2019-04-21T01:25:27.169Z,15.98
2019-04-21T01:28:03.845Z,15.90
2019-04-21T01:30:40.996Z,15.95
2019-04-21T01:33:15.164Z,15.80
2019-04-21T01:35:44.299Z,15.85
2019-04-21T01:38:24.418Z,15.74
2019-04-21T01:40:52.943Z,15.68
2019-04-21T01:43:21.840Z,15.63
2019-04-21T01:45:48.782Z,15.68
2019-04-21T01:48:21.509Z,15.69
2019-04-21T01:50:55.267Z,15.69
2019-04-21T01:53:44.798Z,15.60
2019-04-21T01:56:17.302Z,15.49
2019-04-21T01:58:42.813Z,15.52
2019-04-21T02:01:26.210Z,15.46
2019-04-21T02:04:09.436Z,15.38
2019-04-21T02:06:29.033Z,15.24
2019-04-21T02:08:57.753Z,15.24
2019-04-21T02:11:32.756Z,15.28
2019-04-21T02:14:12.873Z,15.28
2019-04-21T02:16:42.962Z,15.24
2019-04-21T02:19:08.237Z,15.31
2019-04-21T02:21:36.545Z,15.41
2019-04-21T02:24:23.552Z,15.26
2019-04-21T02:26:47.717Z,15.28
2019-04-21T02:29:22.532Z,15.13
2019-04-21T02:32:14.926Z,15.09
2019-04-21T02:34:44.899Z,14.94
2019-04-21T02:42:15.077Z,14.77
2019-04-21T02:47:21.635Z,14.72
2019-04-21T02:49:56.026Z,14.70
2019-04-21T02:52:23.794Z,14.68
2019-04-21T02:55:02.912Z,14.62
2019-04-21T02:57:15.696Z,14.50
2019-04-21T02:59:58.298Z,14.55
2019-04-21T03:02:35.172Z,14.47
2019-04-21T03:07:52.278Z,14.36
2019-04-21T03:10:20.615Z,14.39
2019-04-21T03:12:48.207Z,14.32
2019-04-21T03:15:33.161Z,14.25
2019-04-21T03:18:15.051Z,14.18
2019-04-21T03:20:35.767Z,14.22
2019-04-21T03:23:07.880Z,14.10
2019-04-21T03:25:45.324Z,14.15
2019-04-21T03:28:11.149Z,14.03
2019-04-21T03:38:19.161Z,14.10
2019-04-21T03:40:47.356Z,14.16
2019-04-21T03:43:34.906Z,14.07
2019-04-21T03:45:49.337Z,13.88
2019-04-21T03:48:29.136Z,13.91
2019-04-21T03:50:56.936Z,14.00
2019-04-21T03:56:00.608Z,14.10
2019-04-21T03:58:46.410Z,14.18
2019-04-21T04:01:07.782Z,14.15
2019-04-21T04:06:53.667Z,14.18
2019-04-21T04:11:37.769Z,14.17
2019-04-21T04:14:20.336Z,14.28
2019-04-21T04:16:37.986Z,14.31
2019-04-21T04:19:09.059Z,14.39
2019-04-21T04:21:47.799Z,14.45
2019-04-21T04:24:13.746Z,14.50
2019-04-21T04:31:55.357Z,14.82
2019-04-21T04:34:22.658Z,14.96
2019-04-21T04:37:13.629Z,15.20
2019-04-21T04:42:12.790Z,15.93
2019-04-21T04:44:50.033Z,16.53
2019-04-21T04:49:48.179Z,19.66
2019-04-21T04:52:31.444Z,21.12
2019-04-21T04:57:40.103Z,23.85
2019-04-21T05:00:01.143Z,24.98
2019-04-21T05:07:23.129Z,27.28
2019-04-21T05:09:57.586Z,28.04
2019-04-21T05:12:27.117Z,28.40
2019-04-21T05:14:51.918Z,29.75
2019-04-21T05:24:52.647Z,31.74
2019-04-21T05:27:34.232Z,32.29
2019-04-21T05:30:21.961Z,32.80
2019-04-21T05:33:05.633Z,33.70
2019-04-21T05:35:48.996Z,33.45
2019-04-21T05:38:27.296Z,34.79
2019-04-21T05:40:55.215Z,35.16
2019-04-21T05:43:32.484Z,35.81
2019-04-21T05:46:04.789Z,36.97
2019-04-21T05:48:39.679Z,37.08
2019-04-21T05:51:07.810Z,37.28
2019-04-21T05:53:49.227Z,37.69
2019-04-21T05:56:17.663Z,38.41
2019-04-21T05:58:48.065Z,39.65
2019-04-21T06:01:31.403Z,40.67
2019-04-21T06:04:03.617Z,40.76
2019-04-21T06:06:37.561Z,40.00
2019-04-21T06:08:59.579Z,40.98
2019-04-21T06:11:30.914Z,40.88
2019-04-21T06:14:10.879Z,42.05
2019-04-21T06:16:43.092Z,42.56
2019-04-21T06:19:05.167Z,42.95
2019-04-21T06:21:40.453Z,43.04
2019-04-21T06:24:12.693Z,43.34
2019-04-21T06:27:00.375Z,44.05
2019-04-21T06:29:22.393Z,45.11
2019-04-21T06:34:16.685Z,45.58
2019-04-21T06:37:05.820Z,46.07
2019-04-21T06:39:31.833Z,45.96
2019-04-21T06:41:56.453Z,46.17
2019-04-21T06:44:36.390Z,47.47
2019-04-21T06:47:09.840Z,47.34
2019-04-21T06:49:34.271Z,48.12
2019-04-21T06:52:19.374Z,48.83
2019-04-21T06:54:40.978Z,47.97
2019-04-21T06:57:08.717Z,48.12
2019-04-21T06:59:38.438Z,48.35
2019-04-21T07:02:35.226Z,47.94
2019-04-21T07:04:51.483Z,47.82
2019-04-21T07:07:19.074Z,48.83
2019-04-21T07:09:57.521Z,49.19
2019-04-21T07:12:26.122Z,48.15
2019-04-21T07:14:59.455Z,47.39
2019-04-21T07:17:30.750Z,49.08
2019-04-21T07:22:37.574Z,49.26
2019-04-21T07:24:58.710Z,49.96
2019-04-21T07:27:35.357Z,50.60
2019-04-21T07:30:20.851Z,51.86
2019-04-21T07:32:40.031Z,51.38
2019-04-21T07:35:08.454Z,52.57
2019-04-21T07:37:41.057Z,52.10
2019-04-21T07:40:05.582Z,52.61
2019-04-21T07:42:38.057Z,52.16
2019-04-21T07:45:08.772Z,51.66
2019-04-21T07:48:06.579Z,51.73
2019-04-21T07:50:57.768Z,53.23
2019-04-21T07:53:51.346Z,53.26
2019-04-21T07:56:06.522Z,53.73
2019-04-21T07:58:58.254Z,52.98
2019-04-21T08:01:25.712Z,50.70
2019-04-21T08:03:56.983Z,49.68
2019-04-21T08:06:26.884Z,48.04
2019-04-21T08:09:02.916Z,46.83
2019-04-21T08:11:28.260Z,48.75
2019-04-21T08:14:01.137Z,50.62
2019-04-21T08:16:36.824Z,50.57
2019-04-21T08:19:09.670Z,51.93
2019-04-21T08:21:47.788Z,52.13
2019-04-21T08:24:14.555Z,52.17
2019-04-21T08:26:58.687Z,50.04
2019-04-21T08:29:25.834Z,51.23
2019-04-21T08:34:22.594Z,50.65
2019-04-21T08:36:52.836Z,51.99
2019-04-21T08:39:33.131Z,50.72
2019-04-21T08:41:56.773Z,51.19
2019-04-21T08:44:33.810Z,52.89
2019-04-21T08:47:00.149Z,51.79
2019-04-21T08:49:29.369Z,50.39
2019-04-21T08:52:17.655Z,52.24
2019-04-21T08:54:33.734Z,52.29
2019-04-21T08:57:16.327Z,52.48
2019-04-21T08:59:51.825Z,50.86
2019-04-21T09:02:35.589Z,50.03
2019-04-21T09:05:01.479Z,49.07
2019-04-21T09:10:06.860Z,51.22
2019-04-21T09:12:37.168Z,50.73
2019-04-21T09:15:09.902Z,45.38
2019-04-21T09:17:34.414Z,46.65
2019-04-21T09:20:16.990Z,46.10
2019-04-21T09:22:41.574Z,46.33
2019-04-21T09:25:21.159Z,46.60
2019-04-21T09:27:51.847Z,43.66
2019-04-21T09:30:04.901Z,44.06
2019-04-21T09:32:35.304Z,44.39
2019-04-21T09:35:10.710Z,43.23
2019-04-21T09:37:47.362Z,44.11
2019-04-21T09:40:13.445Z,43.26
2019-04-21T09:42:54.190Z,43.96
2019-04-21T09:45:17.832Z,41.02
2019-04-21T09:48:00.819Z,40.34
2019-04-21T09:50:22.612Z,39.65
2019-04-21T09:52:59.931Z,37.58
2019-04-21T09:55:36.461Z,36.54
2019-04-21T09:58:11.771Z,38.00
2019-04-21T10:00:46.357Z,36.53
2019-04-21T10:03:08.116Z,34.63
2019-04-21T10:05:36.065Z,34.53
2019-04-21T10:08:08.075Z,31.50
2019-04-21T10:10:40.023Z,31.53
2019-04-21T10:13:10.541Z,30.67
2019-04-21T10:15:39.702Z,30.52
2019-04-21T10:18:10.829Z,28.99
2019-04-21T10:20:42.688Z,28.60
2019-04-21T10:23:13.535Z,28.17
2019-04-21T10:25:46.330Z,28.18
2019-04-21T10:28:16.772Z,28.13
2019-04-21T10:30:46.867Z,28.46
2019-04-21T10:33:16.714Z,26.92
2019-04-21T10:35:46.817Z,25.61
2019-04-21T10:38:26.100Z,26.32
2019-04-21T10:40:47.602Z,26.66
2019-04-21T10:43:21.886Z,26.95
2019-04-21T10:45:50.750Z,26.75
2019-04-21T10:48:23.015Z,27.02
2019-04-21T10:50:54.833Z,26.53
2019-04-21T10:53:27.021Z,27.35
2019-04-21T10:56:13.542Z,27.04
2019-04-21T10:58:34.152Z,27.13
2019-04-21T11:01:13.872Z,26.68
2019-04-21T11:03:47.299Z,26.12
2019-04-21T11:06:18.901Z,25.92
2019-04-21T11:08:52.371Z,26.20
2019-04-21T11:11:21.778Z,26.74
2019-04-21T11:13:52.660Z,26.51
2019-04-21T11:16:28.883Z,26.15
2019-04-21T11:18:59.996Z,27.44
2019-04-21T11:21:31.259Z,27.12
2019-04-21T11:24:01.965Z,26.54
2019-04-21T11:26:31.815Z,26.23
2019-04-21T11:29:05.095Z,26.15
2019-04-21T11:31:36.905Z,26.02
2019-04-21T11:34:07.630Z,26.20
2019-04-21T11:36:37.497Z,25.86
2019-04-21T11:39:22.295Z,26.15
2019-04-21T11:41:41.635Z,26.78
2019-04-21T11:44:12.107Z,25.58
2019-04-21T11:46:44.458Z,26.29
2019-04-21T11:49:15.807Z,26.46
2019-04-21T11:51:45.486Z,26.67
2019-04-21T11:54:17.142Z,27.15
2019-04-21T11:56:46.507Z,26.83
2019-04-21T11:59:15.905Z,26.03
2019-04-21T12:01:45.856Z,26.07
2019-04-21T12:04:16.108Z,26.70
2019-04-21T12:06:48.861Z,27.23
2019-04-21T12:09:21.006Z,27.88
2019-04-21T12:11:51.536Z,27.40
2019-04-21T12:14:22.052Z,26.48
2019-04-21T12:16:52.996Z,26.78
2019-04-21T12:19:23.388Z,27.41
2019-04-21T12:22:05.110Z,26.93
2019-04-21T12:24:25.200Z,26.81
2019-04-21T12:26:54.080Z,26.57
2019-04-21T12:29:24.846Z,27.40
2019-04-21T12:32:16.301Z,27.66
2019-04-21T12:34:50.096Z,28.26
2019-04-21T12:37:22.767Z,28.48
2019-04-21T12:39:54.762Z,27.93
2019-04-21T12:42:24.874Z,26.83
2019-04-21T12:44:55.139Z,27.08
2019-04-21T12:47:25.863Z,27.63
2019-04-21T12:49:57.028Z,26.95
2019-04-21T12:52:27.501Z,26.88
2019-04-21T12:54:58.010Z,27.52
2019-04-21T12:57:31.304Z,27.74
2019-04-21T13:00:02.914Z,26.92
2019-04-21T13:02:33.720Z,27.02
2019-04-21T13:05:05.364Z,26.08
2019-04-21T13:07:37.388Z,26.83
2019-04-21T13:10:10.445Z,27.08
2019-04-21T13:12:41.732Z,26.98
2019-04-21T13:15:17.728Z,26.93
2019-04-21T13:17:47.446Z,27.13
2019-04-21T13:20:17.519Z,26.66
2019-04-21T13:22:50.280Z,26.65
2019-04-21T13:25:20.827Z,27.44
2019-04-21T13:27:52.396Z,27.79
2019-04-21T13:30:24.257Z,27.31
2019-04-21T13:32:58.696Z,27.16
2019-04-21T13:35:28.903Z,27.28
2019-04-21T13:37:58.532Z,26.95
2019-04-21T13:41:02.086Z,26.83
2019-04-21T13:43:17.025Z,26.78
2019-04-21T13:45:47.804Z,26.86
2019-04-21T13:48:18.978Z,26.82
2019-04-21T13:50:51.213Z,26.96
2019-04-21T13:53:20.920Z,26.74
2019-04-21T13:55:50.833Z,27.53
2019-04-21T13:58:22.118Z,27.31
2019-04-21T14:00:54.109Z,27.25
2019-04-21T14:03:26.685Z,27.23
2019-04-21T14:05:58.190Z,27.53
2019-04-21T14:08:29.352Z,27.02
2019-04-21T14:11:01.688Z,27.17
2019-04-21T14:13:32.486Z,27.16
2019-04-21T14:16:04.089Z,27.15
2019-04-21T14:18:36.567Z,27.27
2019-04-21T14:21:07.452Z,27.62
2019-04-21T14:23:44.651Z,27.67
2019-04-21T14:26:11.979Z,28.15
2019-04-21T14:28:41.426Z,27.86
2019-04-21T14:31:12.565Z,27.46
2019-04-21T14:33:43.706Z,27.18
2019-04-21T14:36:14.819Z,27.56
2019-04-21T14:38:46.930Z,27.06
2019-04-21T14:41:20.001Z,27.28
2019-04-21T14:43:50.103Z,27.85
2019-04-21T14:46:27.121Z,27.74
2019-04-21T14:49:13.079Z,27.94
2019-04-21T14:51:45.217Z,28.02
2019-04-21T14:54:26.736Z,27.72
2019-04-21T14:56:57.599Z,27.87
2019-04-21T14:59:27.044Z,27.51
2019-04-21T15:01:58.030Z,27.38
2019-04-21T15:04:28.020Z,27.44
2019-04-21T15:07:01.202Z,27.84
2019-04-21T15:09:35.494Z,27.70
2019-04-21T15:12:03.925Z,27.45
2019-04-21T15:14:33.812Z,26.91
2019-04-21T15:17:05.074Z,26.61
2019-04-21T15:19:35.565Z,27.00
2019-04-21T15:22:06.279Z,27.15
2019-04-21T15:24:36.688Z,26.90
2019-04-21T15:27:07.229Z,27.10
2019-04-21T15:29:38.511Z,26.76
2019-04-21T15:32:10.483Z,26.52
2019-04-21T15:34:40.273Z,26.59
2019-04-21T15:37:10.594Z,26.71
2019-04-21T15:39:42.982Z,26.51
2019-04-21T15:42:14.587Z,26.33
2019-04-21T15:44:45.005Z,26.59
2019-04-21T15:47:15.802Z,26.81
2019-04-21T15:50:02.777Z,26.61
2019-04-21T15:52:27.708Z,26.43
2019-04-21T15:54:58.936Z,26.60
2019-04-21T15:57:37.721Z,26.73
2019-04-21T16:00:11.083Z,26.73
2019-04-21T16:02:44.518Z,26.53
2019-04-21T16:05:15.029Z,26.53
2019-04-21T16:07:44.536Z,26.45
2019-04-21T16:10:28.296Z,26.21
2019-04-21T16:12:45.887Z,26.41
2019-04-21T16:15:16.683Z,26.37
2019-04-21T16:17:47.599Z,26.61
2019-04-21T16:20:17.825Z,26.22
2019-04-21T16:22:48.508Z,26.33
2019-04-21T16:25:21.057Z,26.53
2019-04-21T16:27:51.040Z,26.22
2019-04-21T16:30:23.869Z,26.22
2019-04-21T16:32:56.471Z,26.04
2019-04-21T16:35:27.010Z,26.29
2019-04-21T16:37:57.834Z,26.38
2019-04-21T16:40:41.325Z,26.38
2019-04-21T16:43:00.932Z,26.49
2019-04-21T16:45:32.699Z,26.24
2019-04-21T16:48:03.405Z,26.31
2019-04-21T16:50:34.249Z,26.23
2019-04-21T16:53:04.358Z,26.24
2019-04-21T16:55:51.144Z,26.18
2019-04-21T16:58:34.736Z,25.90
2019-04-21T17:01:12.062Z,25.84
2019-04-21T17:03:42.364Z,25.86
2019-04-21T17:06:13.238Z,26.09
2019-04-21T17:08:45.398Z,26.00
2019-04-21T17:11:22.833Z,25.89
2019-04-21T17:13:47.289Z,25.87
2019-04-21T17:16:43.490Z,25.64
2019-04-21T17:19:03.113Z,25.60
2019-04-21T17:21:23.813Z,25.69
2019-04-21T17:23:54.600Z,25.67
2019-04-21T17:26:26.901Z,25.85
2019-04-21T17:28:58.719Z,25.93
2019-04-21T17:31:28.870Z,25.81
2019-04-21T17:34:07.719Z,25.73
2019-04-21T17:36:33.029Z,25.82
2019-04-21T17:39:04.786Z,25.57
2019-04-21T17:41:42.480Z,25.65
2019-04-21T17:44:08.841Z,25.34
2019-04-21T17:46:47.800Z,25.36
2019-04-21T17:49:12.773Z,25.30
2019-04-21T17:52:05.891Z,25.20
2019-04-21T17:54:41.891Z,25.00
2019-04-21T17:57:26.718Z,24.83
2019-04-21T18:00:07.027Z,24.60
2019-04-21T18:02:35.123Z,24.43
2019-04-21T18:05:08.544Z,24.47
2019-04-21T18:07:34.994Z,24.23
2019-04-21T18:10:07.731Z,24.04
2019-04-21T18:12:36.417Z,24.12
2019-04-21T18:15:15.768Z,23.95
2019-04-21T18:17:26.792Z,23.98
2019-04-21T18:19:57.204Z,23.37
2019-04-21T18:22:36.049Z,23.37
2019-04-21T18:25:10.012Z,23.48
2019-04-21T18:27:38.856Z,23.49
2019-04-21T18:30:30.927Z,23.46
2019-04-21T18:32:59.970Z,23.46
2019-04-21T18:35:37.538Z,23.26
2019-04-21T18:38:22.511Z,23.35
2019-04-21T18:40:50.648Z,23.17
2019-04-21T18:46:25.922Z,23.12
2019-04-21T18:48:40.968Z,23.13
2019-04-21T18:51:35.961Z,23.02
2019-04-21T18:54:14.831Z,22.94
2019-04-21T18:56:31.675Z,22.82
2019-04-21T18:59:00.751Z,22.83
2019-04-21T19:01:35.232Z,22.69
2019-04-21T19:04:12.482Z,22.75
2019-04-21T19:06:54.607Z,22.67
2019-04-21T19:09:35.911Z,22.62
2019-04-21T19:12:10.141Z,22.40
2019-04-21T19:14:50.490Z,22.48
2019-04-21T19:17:33.547Z,22.41
2019-04-21T19:20:02.686Z,22.33
2019-04-21T19:22:09.128Z,22.23
2019-04-21T19:24:48.412Z,22.20
2019-04-21T19:27:22.558Z,22.25
2019-04-21T19:29:59.480Z,22.08
2019-04-21T19:32:25.919Z,22.13
2019-04-21T19:34:40.607Z,21.97
2019-04-21T19:37:14.381Z,21.85
2019-04-21T19:40:00.404Z,21.87
2019-04-21T19:42:25.730Z,21.80
2019-04-21T19:45:08.903Z,21.76
2019-04-21T19:47:41.794Z,21.79
2019-04-21T19:50:12.129Z,21.84
2019-04-21T19:52:36.599Z,21.66
2019-04-21T19:54:56.759Z,21.57
2019-04-21T19:57:27.369Z,21.70
2019-04-21T20:00:00.396Z,21.68
2019-04-21T20:02:28.138Z,21.63
2019-04-21T20:05:05.931Z,21.70
2019-04-21T20:07:43.866Z,21.75
2019-04-21T20:10:25.667Z,21.62
2019-04-21T20:12:50.375Z,21.65
2019-04-21T20:15:31.303Z,21.63
2019-04-21T20:17:54.048Z,21.52
2019-04-21T20:20:13.198Z,21.49
2019-04-21T20:22:47.406Z,21.43
2019-04-21T20:25:20.982Z,21.37
2019-04-21T20:28:01.306Z,21.18
2019-04-21T20:30:46.115Z,21.16
2019-04-21T20:33:38.117Z,21.14
2019-04-21T20:35:52.335Z,21.06
2019-04-21T20:38:15.689Z,20.62
2019-04-21T20:40:45.933Z,21.06
2019-04-21T20:43:26.970Z,21.05
2019-04-21T20:46:03.476Z,20.85
2019-04-21T20:48:29.925Z,20.94
2019-04-21T20:51:11.899Z,20.87
2019-04-21T20:53:36.089Z,20.91
2019-04-21T20:56:02.217Z,20.90
2019-04-21T20:58:41.150Z,20.92
2019-04-21T21:03:48.884Z,20.75
2019-04-21T21:06:19.510Z,20.80
2019-04-21T21:08:49.910Z,20.87
2019-04-21T21:11:24.377Z,20.75
2019-04-21T21:14:01.140Z,20.73
2019-04-21T21:16:36.889Z,20.80
2019-04-21T21:19:11.203Z,20.76
2019-04-21T21:21:36.539Z,20.69
2019-04-21T21:24:10.262Z,20.73
2019-04-21T21:26:44.066Z,20.66
2019-04-21T21:29:18.276Z,20.54
2019-04-21T21:31:49.070Z,20.57
2019-04-21T21:34:21.382Z,20.53
2019-04-21T21:36:49.451Z,20.50
2019-04-21T21:39:21.287Z,20.29
2019-04-21T21:41:45.220Z,20.28
2019-04-21T21:44:17.799Z,20.32
2019-04-21T21:46:59.463Z,20.36
2019-04-21T21:49:40.905Z,20.32
2019-04-21T21:52:01.753Z,20.27
2019-04-21T21:54:20.405Z,20.09
2019-04-21T21:56:50.791Z,19.91
2019-04-21T21:59:25.599Z,19.84
2019-04-21T22:01:54.874Z,19.77
2019-04-21T22:04:30.696Z,19.80
2019-04-21T22:07:04.569Z,19.72
2019-04-21T22:09:28.679Z,19.67
2019-04-21T22:12:03.146Z,19.60
2019-04-21T22:14:36.905Z,19.51
2019-04-21T22:17:21.413Z,19.52
2019-04-21T22:19:58.227Z,19.27
2019-04-21T22:22:23.228Z,19.27
2019-04-21T22:24:50.790Z,19.26
2019-04-21T22:27:13.297Z,19.14
2019-04-21T22:29:48.199Z,19.16
2019-04-21T22:32:22.937Z,19.14
2019-04-21T22:34:54.810Z,19.09
2019-04-21T22:37:38.053Z,19.03
2019-04-21T22:40:11.349Z,18.98
2019-04-21T22:42:29.450Z,18.94
2019-04-21T22:44:56.736Z,18.81
2019-04-21T22:47:32.201Z,18.74
2019-04-21T22:49:59.738Z,18.66
2019-04-21T22:52:31.985Z,18.66
2019-04-21T22:55:08.203Z,18.54
2019-04-21T22:57:41.742Z,18.52
2019-04-21T23:00:10.726Z,18.52
2019-04-21T23:02:39.285Z,18.38
2019-04-21T23:05:10.182Z,18.36
2019-04-21T23:07:49.510Z,18.28
2019-04-21T23:10:13.546Z,18.29
2019-04-21T23:12:44.070Z,18.24
2019-04-21T23:15:20.474Z,18.16
2019-04-21T23:18:04.993Z,18.11
2019-04-21T23:20:41.993Z,18.00
2019-04-21T23:23:11.811Z,18.07
2019-04-21T23:25:40.059Z,17.93
2019-04-21T23:28:11.505Z,17.90
2019-04-21T23:30:50.297Z,17.84
2019-04-21T23:33:06.415Z,17.81
2019-04-21T23:35:38.221Z,17.83
2019-04-21T23:38:05.373Z,17.77
2019-04-21T23:40:35.175Z,17.84
2019-04-21T23:43:09.316Z,17.79
2019-04-21T23:45:41.324Z,17.71
2019-04-21T23:48:23.532Z,17.54
2019-04-21T23:50:50.736Z,17.45
2019-04-21T23:53:13.196Z,17.46
2019-04-21T23:55:45.735Z,17.40
2019-04-21T23:58:22.208Z,17.44
